Time;durP1;ratioP1;P1;durP2;ratioP2;P2;SDS_P1;SDS_P2;PMS_P1;PMS_P2;Temp;Humidity;BMP_temperature;BMP_pressure;BME280_temperature;BME280_humidity;BME280_pressure;Samples;Min_cycle;Max_cycle;Signal;HPM_P1;HPM_P2
2022/07/03 00:00:23;;;;;;;3.60;3.30;;;;;;;19.00;100.00;96582.38;4952590;28;20219;-79
2022/07/03 00:02:50;;;;;;;4.82;3.13;;;;;;;18.91;100.00;96592.25;4956397;28;20213;-79
2022/07/03 00:05:17;;;;;;;3.55;3.22;;;;;;;18.87;100.00;96596.66;4952175;28;20295;-79
2022/07/03 00:07:44;;;;;;;3.90;3.55;;;;;;;18.81;100.00;96598.56;4966821;28;20220;-79
2022/07/03 00:10:11;;;;;;;5.88;3.50;;;;;;;18.78;100.00;96595.56;4945848;28;20197;-79
2022/07/03 00:12:39;;;;;;;4.15;3.65;;;;;;;18.70;100.00;96599.69;4964635;28;20315;-80
2022/07/03 00:15:08;;;;;;;3.80;3.50;;;;;;;18.69;100.00;96598.06;4963749;28;20198;-79
2022/07/03 00:17:35;;;;;;;3.90;3.60;;;;;;;18.58;100.00;96601.06;4931509;28;20300;-79
2022/07/03 00:20:02;;;;;;;4.25;3.70;;;;;;;18.50;100.00;96602.41;4960348;28;20301;-79
2022/07/03 00:22:31;;;;;;;4.20;3.70;;;;;;;18.52;100.00;96602.97;4952342;28;20216;-80
2022/07/03 00:25:02;;;;;;;6.20;4.10;;;;;;;18.52;100.00;96597.50;4961758;28;20201;-79
2022/07/03 00:27:32;;;;;;;4.43;4.03;;;;;;;18.45;100.00;96594.22;4958153;28;20221;-79
2022/07/03 00:30:03;;;;;;;6.03;4.60;;;;;;;18.39;100.00;96603.50;4971765;28;20205;-79
2022/07/03 00:32:31;;;;;;;7.77;4.30;;;;;;;18.34;100.00;96604.31;4946407;28;20236;-79
2022/07/03 00:34:58;;;;;;;4.37;3.97;;;;;;;18.41;100.00;96602.13;4946665;28;20207;-79
2022/07/03 00:37:26;;;;;;;4.30;3.90;;;;;;;18.32;100.00;96592.84;4948862;28;20217;-79
2022/07/03 00:39:53;;;;;;;4.77;4.13;;;;;;;18.27;100.00;96595.59;4963162;28;20248;-79
2022/07/03 00:42:21;;;;;;;7.50;5.60;;;;;;;18.25;100.00;96591.47;4937286;28;20256;-79
2022/07/03 00:44:49;;;;;;;6.63;4.63;;;;;;;18.30;100.00;96607.84;4958458;28;20307;-79
2022/07/03 00:47:19;;;;;;;10.00;4.53;;;;;;;18.29;100.00;96607.03;4951747;28;20312;-79
2022/07/03 00:49:48;;;;;;;4.53;3.90;;;;;;;18.36;100.00;96604.88;4949098;28;20240;-79
2022/07/03 00:52:17;;;;;;;4.60;4.20;;;;;;;18.33;100.00;96604.59;4963909;28;20239;-79
2022/07/03 00:54:51;;;;;;;5.77;5.23;;;;;;;18.27;100.00;96608.44;4964198;28;20205;-80
2022/07/03 00:57:20;;;;;;;6.63;4.70;;;;;;;18.37;100.00;96600.25;4959266;28;20286;-80
2022/07/03 00:59:47;;;;;;;4.87;4.40;;;;;;;18.32;100.00;96598.31;4966642;28;20201;-79
2022/07/03 01:02:23;;;;;;;5.20;4.70;;;;;;;18.19;100.00;96589.84;4947410;28;20236;-80
2022/07/03 01:04:57;;;;;;;9.57;4.90;;;;;;;18.21;100.00;96590.38;4948208;28;20219;-79
2022/07/03 01:07:35;;;;;;;5.47;4.73;;;;;;;18.27;100.00;96590.13;4946707;28;20204;-79
2022/07/03 01:10:13;;;;;;;8.53;4.77;;;;;;;18.33;100.00;96583.53;4958666;28;20201;-80
2022/07/03 01:12:55;;;;;;;6.50;4.70;;;;;;;18.33;100.00;96590.94;4962746;28;20256;-79
2022/07/03 01:15:33;;;;;;;5.00;4.50;;;;;;;18.40;100.00;96586.00;4947561;28;20217;-79
2022/07/03 01:18:13;;;;;;;4.87;4.30;;;;;;;18.41;100.00;96576.69;4955856;28;20204;-80
2022/07/03 01:20:45;;;;;;;5.40;4.73;;;;;;;18.33;100.00;96582.72;4953247;28;20205;-80
2022/07/03 01:23:25;;;;;;;6.20;4.93;;;;;;;18.21;100.00;96569.31;4964476;28;20220;-79
2022/07/03 01:25:55;;;;;;;6.03;4.87;;;;;;;18.21;100.00;96569.31;4948859;28;20224;-79
2022/07/03 01:28:24;;;;;;;5.80;4.70;;;;;;;18.28;100.00;96560.88;4938971;28;20211;-80
2022/07/03 01:30:53;;;;;;;4.60;4.20;;;;;;;18.27;100.00;96568.25;4963252;28;20271;-80
2022/07/03 01:33:22;;;;;;;4.97;4.27;;;;;;;18.26;100.00;96563.06;4948131;28;20233;-79
2022/07/03 01:36:05;;;;;;;4.73;4.30;;;;;;;18.35;100.00;96575.06;4945075;28;20206;-80
2022/07/03 01:38:34;;;;;;;5.13;4.63;;;;;;;18.39;100.00;96568.78;4948443;28;20232;-80
2022/07/03 01:41:04;;;;;;;6.37;4.57;;;;;;;18.45;100.00;96564.13;4959378;28;20196;-79
2022/07/03 01:43:34;;;;;;;4.80;4.20;;;;;;;18.46;100.00;96563.84;4966584;28;20219;-79
2022/07/03 01:46:04;;;;;;;5.30;4.80;;;;;;;18.45;100.00;96575.06;4965744;28;20216;-80
2022/07/03 01:48:33;;;;;;;5.40;4.47;;;;;;;18.45;100.00;96569.59;4952134;28;20213;-79
2022/07/03 01:51:01;;;;;;;10.50;4.37;;;;;;;18.40;100.00;96566.84;4944297;28;20224;-79
2022/07/03 01:53:30;;;;;;;5.63;4.40;;;;;;;18.29;100.00;96576.19;4952580;28;20240;-80
2022/07/03 01:55:59;;;;;;;5.10;4.60;;;;;;;18.32;100.00;96572.88;4952388;28;20223;-80
2022/07/03 01:58:28;;;;;;;4.33;3.93;;;;;;;18.30;100.00;96562.22;4970598;28;20237;-80
2022/07/03 02:01:03;;;;;;;5.87;4.37;;;;;;;18.29;100.00;96565.25;4951920;28;20207;-80
2022/07/03 02:03:32;;;;;;;4.77;4.10;;;;;;;18.33;100.00;96569.06;4961663;28;20223;-80
2022/07/03 02:06:05;;;;;;;5.63;4.23;;;;;;;18.23;100.00;96561.69;4967654;28;20212;-80
2022/07/03 02:08:51;;;;;;;5.90;3.60;;;;;;;18.20;100.00;96566.88;4957905;28;20213;-80
2022/07/03 02:11:20;;;;;;;4.80;4.30;;;;;;;18.21;100.00;96577.53;4949066;28;20224;-80
2022/07/03 02:14:02;;;;;;;6.30;4.70;;;;;;;18.21;100.00;96574.78;4950884;28;20233;-80
2022/07/03 02:16:36;;;;;;;4.50;4.10;;;;;;;18.17;100.00;96572.88;4966805;28;20237;-79
2022/07/03 02:19:06;;;;;;;5.57;4.50;;;;;;;18.13;100.00;96567.13;4967066;28;20209;-80
2022/07/03 02:21:34;;;;;;;6.93;4.57;;;;;;;18.07;100.00;96571.78;4952617;28;20223;-80
2022/07/03 02:24:17;;;;;;;7.87;4.77;;;;;;;18.06;100.00;96583.81;4948678;28;20304;-80
2022/07/03 02:26:52;;;;;;;8.53;4.33;;;;;;;18.02;100.00;96582.72;4943454;28;20213;-80
2022/07/03 02:29:27;;;;;;;7.33;4.63;;;;;;;17.97;100.00;96579.97;4961940;28;20205;-80
2022/07/03 02:32:00;;;;;;;5.63;4.30;;;;;;;17.94;100.00;96580.53;4944054;28;20229;-79
2022/07/03 02:34:29;;;;;;;6.77;4.00;;;;;;;17.98;100.00;96584.34;4950349;28;20213;-80
2022/07/03 02:37:02;;;;;;;4.10;3.70;;;;;;;18.05;100.00;96576.69;4948206;28;20235;-79
2022/07/03 02:39:45;;;;;;;4.47;4.07;;;;;;;18.07;100.00;96590.91;4964828;28;20221;-79
2022/07/03 02:42:29;;;;;;;4.93;3.90;;;;;;;18.06;100.00;96600.19;4947390;28;20212;-79
2022/07/03 02:45:02;;;;;;;5.17;4.40;;;;;;;18.09;100.00;96590.66;4950554;28;20710;-80
2022/07/03 02:47:38;;;;;;;6.13;4.00;;;;;;;18.02;100.00;96593.66;4966201;28;20287;-80
2022/07/03 02:50:08;;;;;;;5.10;4.60;;;;;;;17.90;100.00;96600.44;4947018;28;20223;-79
2022/07/03 02:52:45;;;;;;;4.83;4.33;;;;;;;17.92;100.00;96611.94;4960861;28;20273;-79
2022/07/03 02:55:35;;;;;;;5.63;4.37;;;;;;;17.82;100.00;96604.53;4959334;28;20212;-79
2022/07/03 02:58:22;;;;;;;6.90;4.67;;;;;;;17.73;100.00;96601.50;4950799;28;20303;-80
2022/07/03 03:00:58;;;;;;;5.00;4.50;;;;;;;17.72;100.00;96604.50;4942197;28;20201;-79
2022/07/03 03:03:29;;;;;;;6.60;4.67;;;;;;;17.70;100.00;96614.88;4947808;28;20269;-80
2022/07/03 03:06:01;;;;;;;7.53;4.30;;;;;;;17.65;100.00;96599.31;4959126;28;20308;-80
2022/07/03 03:08:36;;;;;;;5.63;4.80;;;;;;;17.57;100.00;96613.44;4941534;28;20209;-80
2022/07/03 03:11:08;;;;;;;6.33;4.90;;;;;;;17.50;100.00;96610.16;4962654;28;20192;-80
2022/07/03 03:13:36;;;;;;;5.90;5.30;;;;;;;17.44;100.00;96607.69;4960607;28;20315;-79
2022/07/03 03:16:08;;;;;;;5.27;4.80;;;;;;;17.45;100.00;96610.13;4951503;28;20208;-79
2022/07/03 03:18:37;;;;;;;5.57;5.00;;;;;;;17.39;100.00;96612.00;4964554;28;20256;-79
2022/07/03 03:21:09;;;;;;;7.50;4.90;;;;;;;17.41;100.00;96603.56;4948193;28;20204;-80
2022/07/03 03:23:48;;;;;;;7.93;7.23;;;;;;;17.44;100.00;96624.06;4947248;28;20209;-80
2022/07/03 03:26:17;;;;;;;7.43;6.20;;;;;;;17.43;100.00;96623.22;4945690;28;20212;-80
2022/07/03 03:28:45;;;;;;;5.97;5.40;;;;;;;17.51;100.00;96627.34;4939350;28;20209;-80
2022/07/03 03:31:14;;;;;;;6.50;5.30;;;;;;;17.52;100.00;96635.28;4966622;28;20240;-79
2022/07/03 03:33:43;;;;;;;8.57;5.17;;;;;;;17.47;100.00;96631.69;4964495;28;20232;-80
2022/07/03 03:36:13;;;;;;;4.73;4.33;;;;;;;17.52;100.00;96637.19;4967124;28;20268;-80
2022/07/03 03:38:41;;;;;;;8.43;4.97;;;;;;;17.58;100.00;96627.91;4958400;28;20208;-80
2022/07/03 03:41:09;;;;;;;5.20;4.70;;;;;;;17.56;100.00;96638.28;4951318;28;20223;-80
2022/07/03 03:43:37;;;;;;;4.67;4.20;;;;;;;17.67;100.00;96646.28;4967387;28;20212;-79
2022/07/03 03:46:05;;;;;;;7.00;5.27;;;;;;;17.71;100.00;96643.81;4952248;28;20237;-79
2022/07/03 03:48:34;;;;;;;5.80;4.60;;;;;;;17.79;100.00;96640.56;4945076;28;20233;-80
2022/07/03 03:51:03;;;;;;;6.77;4.50;;;;;;;17.74;100.00;96629.66;4951530;28;20213;-80
2022/07/03 03:53:30;;;;;;;5.73;4.80;;;;;;;17.72;100.00;96642.75;4950546;28;20224;-80
2022/07/03 03:56:02;;;;;;;5.30;4.90;;;;;;;17.68;100.00;96647.13;4966976;28;20237;-80
2022/07/03 03:58:30;;;;;;;6.90;6.30;;;;;;;17.64;100.00;96646.81;4962634;28;20264;-80
2022/07/03 04:00:57;;;;;;;5.70;4.83;;;;;;;17.64;100.00;96648.72;4966851;28;20286;-79
2022/07/03 04:03:25;;;;;;;6.23;4.90;;;;;;;17.64;100.00;96651.44;4952400;28;20215;-79
2022/07/03 04:05:54;;;;;;;6.27;4.90;;;;;;;17.72;100.00;96648.19;4956478;28;20211;-80
2022/07/03 04:08:23;;;;;;;5.93;4.90;;;;;;;17.66;100.00;96643.81;4961061;28;20211;-79
2022/07/03 04:10:51;;;;;;;9.17;4.60;;;;;;;17.65;100.00;96653.09;4946367;28;20215;-80
2022/07/03 04:13:19;;;;;;;5.23;4.70;;;;;;;17.62;100.00;96657.19;4952078;28;20248;-80
2022/07/03 04:15:47;;;;;;;6.23;4.80;;;;;;;17.61;100.00;96657.41;4947426;28;20219;-79
2022/07/03 04:18:14;;;;;;;5.50;4.50;;;;;;;17.60;100.00;96655.78;4944123;28;20264;-79
2022/07/03 04:20:41;;;;;;;8.93;4.97;;;;;;;17.62;100.00;96653.63;4949715;28;20204;-80
2022/07/03 04:23:10;;;;;;;6.70;4.83;;;;;;;17.62;100.00;96656.34;4950558;28;20217;-79
2022/07/03 04:25:37;;;;;;;7.17;4.47;;;;;;;17.63;100.00;96658.00;4964777;28;20205;-79
2022/07/03 04:28:04;;;;;;;7.07;5.27;;;;;;;17.63;100.00;96649.81;4945536;28;20205;-79
2022/07/03 04:30:31;;;;;;;6.23;4.80;;;;;;;17.61;100.00;96651.94;4958750;28;20203;-79
2022/07/03 04:32:59;;;;;;;8.93;5.53;;;;;;;17.62;100.00;96648.16;4948564;28;20229;-80
2022/07/03 04:35:25;;;;;;;5.63;5.13;;;;;;;17.47;100.00;96637.97;4944571;28;20219;-79
2022/07/03 04:37:53;;;;;;;6.33;4.80;;;;;;;17.46;100.00;96638.22;4958706;28;20218;-79
2022/07/03 04:40:21;;;;;;;6.20;5.20;;;;;;;17.43;100.00;96631.41;4953460;28;20208;-79
2022/07/03 04:42:48;;;;;;;7.13;5.47;;;;;;;17.44;100.00;96646.69;4950501;28;20205;-79
2022/07/03 04:45:15;;;;;;;7.87;5.20;;;;;;;17.47;100.00;96628.97;4944968;28;20202;-79
2022/07/03 04:47:42;;;;;;;7.83;4.60;;;;;;;17.53;100.00;96623.25;4939413;28;20224;-79
2022/07/03 04:50:09;;;;;;;5.87;5.17;;;;;;;17.62;100.00;96632.59;4961403;28;20209;-79
2022/07/03 04:52:36;;;;;;;5.10;4.50;;;;;;;17.67;100.00;96645.47;4960875;28;20213;-80
2022/07/03 04:55:04;;;;;;;6.60;4.83;;;;;;;17.68;100.00;96644.38;4964305;28;20204;-80
2022/07/03 04:57:32;;;;;;;5.93;4.80;;;;;;;17.62;100.00;96631.78;4948160;28;20330;-80
2022/07/03 04:59:59;;;;;;;5.57;4.97;;;;;;;17.69;100.00;96646.03;4944777;28;20213;-79
2022/07/03 05:02:26;;;;;;;5.03;4.43;;;;;;;17.75;100.00;96634.84;4952399;28;20213;-80
2022/07/03 05:04:53;;;;;;;8.00;6.90;;;;;;;17.78;100.00;96636.19;4949457;28;20303;-80
2022/07/03 05:07:20;;;;;;;6.07;4.80;;;;;;;17.80;100.00;96644.13;4963926;28;20228;-80
2022/07/03 05:09:47;;;;;;;9.27;5.53;;;;;;;17.83;100.00;96641.69;4966034;28;20212;-79
2022/07/03 05:12:14;;;;;;;5.20;4.70;;;;;;;17.87;100.00;96634.59;4945463;28;20256;-80
2022/07/03 05:14:43;;;;;;;6.43;5.27;;;;;;;17.89;100.00;96634.31;4952440;28;20205;-80
2022/07/03 05:17:10;;;;;;;6.07;5.43;;;;;;;17.88;100.00;96647.16;4966312;28;20216;-80
2022/07/03 05:19:38;;;;;;;5.93;4.80;;;;;;;17.95;100.00;96647.72;4955246;28;20291;-80
2022/07/03 05:22:05;;;;;;;7.50;4.93;;;;;;;17.96;100.00;96640.34;4950563;28;20217;-80
2022/07/03 05:24:32;;;;;;;8.00;5.07;;;;;;;17.88;100.00;96638.13;4960417;28;20200;-80
2022/07/03 05:26:59;;;;;;;6.13;4.67;;;;;;;17.90;100.00;96644.16;4948916;28;20292;-80
2022/07/03 05:29:26;;;;;;;5.37;4.87;;;;;;;17.84;100.00;96640.59;4943053;28;20213;-80
2022/07/03 05:31:55;;;;;;;8.17;5.97;;;;;;;17.77;100.00;96649.06;4966968;28;20248;-79
2022/07/03 05:34:22;;;;;;;6.47;5.80;;;;;;;17.78;100.00;96647.13;4942151;28;20223;-80
2022/07/03 05:36:50;;;;;;;29.03;25.90;;;;;;;17.73;100.00;96638.91;4943414;28;20202;-79
2022/07/03 05:39:37;;;;;;;16.10;14.50;;;;;;;17.70;100.00;96623.88;4947440;28;20217;-80
2022/07/03 05:42:05;;;;;;;13.80;10.97;;;;;;;17.70;100.00;96636.72;4949521;28;20209;-80
2022/07/03 05:44:32;;;;;;;13.47;12.17;;;;;;;17.76;100.00;96632.94;4953767;28;20220;-80
2022/07/03 05:47:01;;;;;;;15.37;13.77;;;;;;;17.63;100.00;96633.41;4949341;28;20210;-80
2022/07/03 05:49:28;;;;;;;8.93;7.67;;;;;;;17.60;100.00;96623.84;4947913;28;20211;-80
2022/07/03 05:51:55;;;;;;;7.90;6.73;;;;;;;17.59;100.00;96632.31;4949084;28;20204;-79
2022/07/03 05:54:22;;;;;;;8.40;6.67;;;;;;;17.60;100.00;96621.13;4949867;28;20311;-80
2022/07/03 05:56:49;;;;;;;9.07;7.70;;;;;;;17.63;100.00;96622.50;4946326;28;20292;-80
2022/07/03 05:59:16;;;;;;;7.90;6.10;;;;;;;17.68;100.00;96628.00;4946135;28;20229;-80
2022/07/03 06:01:43;;;;;;;10.37;5.63;;;;;;;17.66;100.00;96638.34;4966214;28;20209;-80
2022/07/03 06:04:11;;;;;;;7.60;6.03;;;;;;;17.58;100.00;96619.72;4943765;28;20204;-80
2022/07/03 06:06:38;;;;;;;6.70;6.00;;;;;;;17.62;100.00;96623.59;4942891;28;20356;-79
2022/07/03 06:09:05;;;;;;;7.60;6.90;;;;;;;17.64;100.00;96629.59;4954731;28;20214;-80
2022/07/03 06:11:32;;;;;;;7.60;5.87;;;;;;;17.64;100.00;96624.97;4947263;28;20209;-80
2022/07/03 06:13:59;;;;;;;9.03;5.43;;;;;;;17.67;100.00;96627.16;4941204;28;20220;-80
2022/07/03 06:16:27;;;;;;;6.07;5.50;;;;;;;17.65;100.00;96628.53;4955988;28;20296;-80
2022/07/03 06:18:54;;;;;;;5.77;5.10;;;;;;;17.56;100.00;96630.91;4964501;28;20200;-79
2022/07/03 06:21:22;;;;;;;6.47;5.40;;;;;;;17.54;100.00;96629.53;4961217;28;20209;-76
2022/07/03 06:23:49;;;;;;;6.77;4.83;;;;;;;17.61;100.00;96625.47;4957318;28;20267;-76
2022/07/03 06:26:17;;;;;;;6.80;5.03;;;;;;;17.59;100.00;96616.75;4956768;28;20217;-76
2022/07/03 06:28:44;;;;;;;7.53;5.83;;;;;;;17.60;100.00;96623.03;4954945;28;20211;-76
2022/07/03 06:31:12;;;;;;;6.93;5.10;;;;;;;17.57;100.00;96621.63;4966235;28;20211;-76
2022/07/03 06:33:39;;;;;;;7.70;5.50;;;;;;;17.60;100.00;96628.47;4957923;28;20235;-76
2022/07/03 06:36:06;;;;;;;8.87;6.13;;;;;;;17.61;100.00;96613.72;4944595;28;20205;-76
2022/07/03 06:38:34;;;;;;;6.03;5.23;;;;;;;17.61;100.00;96609.06;4960021;28;20227;-76
2022/07/03 06:41:02;;;;;;;10.20;5.63;;;;;;;17.62;100.00;96613.47;4945658;28;20207;-76
2022/07/03 06:43:29;;;;;;;6.37;5.53;;;;;;;17.71;100.00;96622.78;4943874;28;20237;-76
2022/07/03 06:45:56;;;;;;;5.37;4.87;;;;;;;17.73;100.00;96617.06;4963472;28;20224;-77
2022/07/03 06:48:23;;;;;;;6.40;5.60;;;;;;;17.74;100.00;96607.78;4950024;28;20279;-76
2022/07/03 06:50:50;;;;;;;6.23;5.03;;;;;;;17.77;100.00;96605.34;4951465;28;20283;-76
2022/07/03 06:53:17;;;;;;;6.10;4.90;;;;;;;17.89;100.00;96610.56;4949100;28;20232;-77
2022/07/03 06:55:45;;;;;;;5.63;5.00;;;;;;;17.90;100.00;96609.47;4942116;28;20233;-76
2022/07/03 06:58:12;;;;;;;7.00;5.67;;;;;;;17.91;100.00;96607.56;4953487;28;20237;-76
2022/07/03 07:00:39;;;;;;;5.60;5.10;;;;;;;17.95;100.00;96606.72;4951525;28;20290;-77
2022/07/03 07:03:06;;;;;;;5.20;4.57;;;;;;;18.03;100.00;96606.19;4968380;28;20292;-76
2022/07/03 07:05:33;;;;;;;5.50;5.00;;;;;;;18.05;100.00;96603.19;4946941;28;20201;-76
2022/07/03 07:08:00;;;;;;;6.63;5.07;;;;;;;18.11;100.00;96591.19;4948148;28;20276;-77
2022/07/03 07:10:27;;;;;;;4.73;4.33;;;;;;;18.20;100.00;96594.22;4964555;28;20215;-77
2022/07/03 07:12:56;;;;;;;5.83;4.50;;;;;;;18.15;100.00;96587.63;4961496;28;20229;-77
2022/07/03 07:15:23;;;;;;;4.83;4.30;;;;;;;18.22;100.00;96581.06;4964194;28;20216;-77
2022/07/03 07:17:50;;;;;;;5.40;4.90;;;;;;;18.30;100.00;96591.47;4962634;28;20338;-77
2022/07/03 07:20:17;;;;;;;5.57;5.07;;;;;;;18.54;100.00;96589.84;4950495;28;20233;-80
2022/07/03 07:22:44;;;;;;;6.33;4.53;;;;;;;18.71;100.00;96582.19;4965994;28;20197;-80
2022/07/03 07:25:11;;;;;;;4.53;4.13;;;;;;;19.07;100.00;96588.38;4945846;28;20276;-79
2022/07/03 07:27:38;;;;;;;5.60;4.78;;;;;;;19.53;100.00;96582.78;4946466;28;20216;-79
2022/07/03 07:30:08;;;;;;;4.45;4.03;;;;;;;20.06;100.00;96581.09;4962920;28;20215;-80
2022/07/03 07:32:36;;;;;;;4.57;4.18;;;;;;;20.49;100.00;96581.34;4960971;28;20209;-80
2022/07/03 07:35:03;;;;;;;3.58;3.28;;;;;;;20.71;100.00;96584.41;4946617;28;20213;-80
2022/07/03 07:37:30;;;;;;;3.63;3.33;;;;;;;20.83;100.00;96587.59;4947591;28;20221;-80
2022/07/03 07:39:57;;;;;;;5.32;4.38;;;;;;;21.22;100.00;96572.94;4961095;28;20268;-80
2022/07/03 07:42:24;;;;;;;4.85;3.90;;;;;;;21.62;100.00;96575.16;4948215;28;20220;-80
2022/07/03 07:44:51;;;;;;;4.40;4.00;;;;;;;21.84;100.00;96575.44;4962411;28;20209;-80
2022/07/03 07:47:20;;;;;;;4.05;3.55;;;;;;;22.23;100.00;96588.06;4945023;28;20207;-80
2022/07/03 07:49:48;;;;;;;3.70;3.40;;;;;;;22.27;100.00;96578.94;4968101;28;20211;-80
2022/07/03 07:52:15;;;;;;;4.28;3.78;;;;;;;22.38;96.33;96574.06;4959693;28;20229;-80
2022/07/03 07:54:41;;;;;;;4.15;3.83;;;;;;;22.68;97.63;96564.50;4958970;28;20220;-80
2022/07/03 07:57:09;;;;;;;5.35;3.38;;;;;;;23.07;92.13;96566.81;4948780;28;20335;-80
2022/07/03 07:59:35;;;;;;;4.20;3.72;;;;;;;23.38;87.98;96567.88;4962356;28;20214;-79
2022/07/03 08:07:33;;;;;;;5.68;4.13;;;;;;;23.64;86.22;96559.09;4947042;28;20298;-79
2022/07/03 08:10:00;;;;;;;4.57;3.85;;;;;;;23.74;82.32;96562.44;4952027;28;20205;-79
2022/07/03 08:12:27;;;;;;;3.55;3.25;;;;;;;23.89;80.66;96553.03;4958691;28;20303;-79
2022/07/03 08:14:54;;;;;;;5.55;3.72;;;;;;;24.14;85.09;96560.72;4944714;28;20213;-79
2022/07/03 08:17:21;;;;;;;3.88;3.42;;;;;;;24.42;84.95;96563.38;4966461;28;20211;-79
2022/07/03 08:19:49;;;;;;;5.10;3.75;;;;;;;24.63;81.64;96560.94;4953680;28;20213;-79
2022/07/03 08:22:16;;;;;;;3.97;3.58;;;;;;;24.76;79.88;96557.28;4948212;28;20220;-79
2022/07/03 08:27:17;;;;;;;4.30;3.53;;;;;;;24.93;78.01;96551.06;5054193;27;20592;-80
2022/07/03 08:29:45;;;;;;;3.40;3.10;;;;;;;25.04;76.03;96539.44;5048077;28;20211;-79
2022/07/03 08:32:12;;;;;;;3.70;3.40;;;;;;;25.15;76.43;96548.25;5082496;28;20304;-80
2022/07/03 08:34:39;;;;;;;5.07;3.90;;;;;;;25.27;75.38;96551.22;5053007;28;20208;-80
2022/07/03 08:37:06;;;;;;;3.85;3.50;;;;;;;25.40;72.54;96547.53;5085063;28;20236;-80
2022/07/03 08:39:33;;;;;;;3.80;3.47;;;;;;;25.30;76.78;96545.06;5054509;28;20198;-80
2022/07/03 08:42:00;;;;;;;3.95;3.65;;;;;;;25.51;76.78;96540.59;5045553;28;20498;-80
2022/07/03 08:44:30;;;;;;;5.72;3.90;;;;;;;25.75;75.88;96542.13;5050853;28;20196;-79
2022/07/03 08:46:59;;;;;;;4.50;4.10;;;;;;;25.84;75.43;96545.72;5073401;28;20222;-80
2022/07/03 08:49:27;;;;;;;5.90;4.28;;;;;;;25.88;74.96;96541.16;5060222;28;20202;-80
2022/07/03 08:51:55;;;;;;;4.65;4.20;;;;;;;25.97;78.77;96540.03;5058575;28;20201;-80
2022/07/03 08:54:22;;;;;;;5.70;4.25;;;;;;;25.97;77.58;96531.72;5045923;28;20225;-80
2022/07/03 08:56:50;;;;;;;4.18;3.88;;;;;;;26.06;76.46;96520.66;5049169;28;20230;-80
2022/07/03 08:59:19;;;;;;;7.15;4.57;;;;;;;26.22;77.05;96520.97;5054554;28;20210;-80
2022/07/03 09:01:48;;;;;;;6.03;4.20;;;;;;;26.23;75.28;96526.19;5059554;28;20202;-80
2022/07/03 09:04:15;;;;;;;5.70;3.78;;;;;;;26.21;73.45;96514.63;5054155;28;20197;-80
2022/07/03 09:06:43;;;;;;;6.43;4.18;;;;;;;26.23;73.73;96514.31;5055305;28;20225;-80
2022/07/03 09:09:11;;;;;;;5.47;4.40;;;;;;;26.26;75.59;96508.16;5059832;28;20208;-80
2022/07/03 09:11:39;;;;;;;4.10;3.80;;;;;;;26.10;76.58;96507.00;5053091;28;20210;-80
2022/07/03 09:14:07;;;;;;;6.20;3.92;;;;;;;26.34;76.10;96515.66;5072671;28;20206;-80
2022/07/03 09:16:36;;;;;;;4.68;3.65;;;;;;;26.45;72.71;96500.34;5054297;28;20214;-80
2022/07/03 09:19:05;;;;;;;4.65;4.03;;;;;;;26.64;72.52;96511.84;5061711;28;20202;-80
2022/07/03 09:21:40;;;;;;;4.97;3.70;;;;;;;26.69;72.68;96510.88;5052303;28;20210;-80
2022/07/03 09:24:08;;;;;;;5.55;4.43;;;;;;;26.75;72.03;96510.34;5045587;28;20213;-80
2022/07/03 09:26:36;;;;;;;6.78;4.88;;;;;;;26.84;72.21;96512.28;5060059;28;20234;-80
2022/07/03 09:29:04;;;;;;;4.63;4.22;;;;;;;26.78;71.75;96492.25;5055044;28;20301;-80
2022/07/03 09:31:32;;;;;;;4.22;3.90;;;;;;;26.88;70.34;96496.63;5045580;28;20218;-80
2022/07/03 09:34:01;;;;;;;3.47;3.25;;;;;;;26.91;69.14;96496.81;5055225;28;20228;-80
2022/07/03 09:36:44;;;;;;;4.35;4.05;;;;;;;26.96;69.38;96510.50;5046867;28;20232;-80
2022/07/03 09:39:16;;;;;;;4.10;3.72;;;;;;;26.94;69.65;96503.66;5036856;28;20209;-80
2022/07/03 09:41:55;;;;;;;4.63;3.78;;;;;;;27.20;68.27;96509.91;5045753;28;20225;-80
2022/07/03 09:44:41;;;;;;;4.47;4.07;;;;;;;27.34;67.82;96504.94;5041529;28;20246;-80
2022/07/03 09:47:15;;;;;;;4.28;3.88;;;;;;;27.44;66.94;96500.97;5040702;28;20226;-80
2022/07/03 09:49:50;;;;;;;4.07;3.67;;;;;;;27.42;64.60;96503.25;5042341;28;20218;-80
2022/07/03 09:52:30;;;;;;;6.57;3.78;;;;;;;27.50;65.04;96497.66;5034484;28;20215;-80
2022/07/03 09:54:59;;;;;;;4.63;3.63;;;;;;;27.59;66.71;96497.63;5039365;28;20247;-80
2022/07/03 09:57:28;;;;;;;4.32;3.67;;;;;;;27.58;66.20;96498.78;5036131;28;20228;-80
2022/07/03 10:00:11;;;;;;;4.45;3.40;;;;;;;27.61;66.11;96502.88;5049267;28;20209;-80
2022/07/03 10:02:53;;;;;;;4.85;3.38;;;;;;;27.50;64.04;96499.63;5034563;28;20202;-80
2022/07/03 10:05:21;;;;;;;5.28;3.70;;;;;;;27.51;63.83;96495.72;5041520;28;20206;-80
2022/07/03 10:07:54;;;;;;;3.30;3.00;;;;;;;27.46;62.73;96507.00;5040516;28;20195;-80
2022/07/03 10:10:23;;;;;;;5.88;3.28;;;;;;;27.55;64.11;96502.25;5043179;28;20218;-80
2022/07/03 10:12:51;;;;;;;3.75;3.40;;;;;;;27.67;64.11;96491.22;5034524;28;20203;-80
2022/07/03 10:15:18;;;;;;;3.92;3.53;;;;;;;27.75;64.06;96487.56;5036274;28;20202;-80
2022/07/03 10:17:49;;;;;;;4.65;3.15;;;;;;;27.97;64.17;96493.97;5037269;28;20207;-80
2022/07/03 10:20:20;;;;;;;4.05;3.05;;;;;;;27.92;59.97;96496.91;5045387;28;20224;-80
2022/07/03 10:22:49;;;;;;;5.53;3.25;;;;;;;27.75;60.28;96489.53;5042841;28;20269;-80
2022/07/03 10:25:18;;;;;;;3.35;3.00;;;;;;;27.79;60.37;96484.94;5032676;28;20238;-80
2022/07/03 10:27:47;;;;;;;3.00;2.80;;;;;;;27.88;60.11;96493.22;5042557;28;20289;-80
2022/07/03 10:30:16;;;;;;;3.40;3.10;;;;;;;27.90;58.31;96486.19;5040945;28;20206;-80
2022/07/03 10:32:46;;;;;;;3.10;2.72;;;;;;;28.02;57.93;96486.22;5031360;28;20226;-80
2022/07/03 10:35:15;;;;;;;3.13;2.83;;;;;;;28.01;59.25;96486.56;5045301;28;20210;-80
2022/07/03 10:38:04;;;;;;;2.65;2.45;;;;;;;27.95;60.33;96490.72;5041519;28;20214;-80
2022/07/03 10:46:15;;;;;;;3.22;3.03;;;;;;;27.80;62.03;96490.16;5044823;28;20234;-80
2022/07/03 10:48:59;;;;;;;4.07;3.10;;;;;;;27.95;64.62;96485.16;5041920;28;20203;-80
2022/07/03 10:51:28;;;;;;;3.15;2.47;;;;;;;27.99;62.07;96481.34;5039871;28;20216;-80
2022/07/03 10:54:14;;;;;;;2.92;2.72;;;;;;;28.22;63.18;96482.69;5033951;28;20202;-80
2022/07/03 10:57:25;;;;;;;3.45;2.70;;;;;;;28.31;58.55;96477.03;5048293;28;20221;-80
2022/07/03 11:00:19;;;;;;;3.65;2.40;;;;;;;28.52;56.89;96469.47;5011675;28;20209;-80
2022/07/03 11:02:52;;;;;;;2.70;2.50;;;;;;;28.59;56.65;96466.13;5032497;28;20253;-80
2022/07/03 11:05:21;;;;;;;2.47;2.25;;;;;;;28.69;57.63;96470.44;5033262;28;20205;-80
2022/07/03 11:08:05;;;;;;;3.97;2.50;;;;;;;28.83;54.27;96470.97;5041163;28;20218;-80
2022/07/03 11:10:34;;;;;;;2.67;2.20;;;;;;;28.87;51.22;96469.94;5045929;28;20206;-80
2022/07/03 11:13:03;;;;;;;2.05;1.90;;;;;;;29.04;49.50;96477.25;5041491;28;20211;-80
2022/07/03 11:15:34;;;;;;;2.60;2.30;;;;;;;29.18;51.00;96474.91;5044475;28;20206;-80
2022/07/03 11:18:17;;;;;;;3.05;2.38;;;;;;;29.26;50.44;96476.78;5047518;28;20198;-80
2022/07/03 11:21:12;;;;;;;2.30;2.10;;;;;;;29.43;50.63;96477.75;5031776;28;20203;-80
2022/07/03 11:23:46;;;;;;;2.10;1.90;;;;;;;29.63;47.46;96476.78;5036324;28;20214;-80
2022/07/03 11:26:23;;;;;;;2.53;1.88;;;;;;;29.75;45.65;96467.63;5044154;28;20234;-80
2022/07/03 11:28:54;;;;;;;3.90;2.00;;;;;;;29.78;46.09;96462.16;5038947;28;20228;-80
2022/07/03 11:31:25;;;;;;;3.17;2.20;;;;;;;29.75;49.02;96456.50;5045950;28;20236;-80
2022/07/03 11:33:59;;;;;;;2.53;2.15;;;;;;;29.81;48.99;96461.47;5043939;28;20198;-80
2022/07/03 11:36:28;;;;;;;2.40;2.13;;;;;;;29.93;49.55;96460.63;5045282;28;20229;-80
2022/07/03 11:39:08;;;;;;;3.67;2.20;;;;;;;30.13;47.83;96448.50;5046697;28;20281;-80
2022/07/03 11:41:46;;;;;;;3.67;2.00;;;;;;;29.88;48.28;96455.28;5039424;28;20222;-80
2022/07/03 11:44:21;;;;;;;2.55;1.85;;;;;;;29.63;48.58;96446.19;5034046;28;20292;-80
2022/07/03 11:46:52;;;;;;;2.00;1.90;;;;;;;29.75;46.70;96437.00;5042360;28;20276;-80
2022/07/03 11:49:21;;;;;;;2.85;2.00;;;;;;;29.79;44.08;96433.16;5043904;28;20284;-80
2022/07/03 11:51:59;;;;;;;2.35;1.85;;;;;;;30.06;45.29;96431.59;5032573;28;20213;-80
2022/07/03 11:54:30;;;;;;;2.00;1.67;;;;;;;30.25;43.46;96430.94;5041573;28;20228;-80